createdAt,value
2022-08-12T00:01:05.517Z,101620.63
2022-08-12T00:03:52.469Z,101618.75
2022-08-12T00:06:41.267Z,101616.78
2022-08-12T00:09:27.002Z,101621.56
2022-08-12T00:12:14.669Z,101618.81
2022-08-12T00:15:02.805Z,101613.06
2022-08-12T00:17:48.752Z,101612.28
2022-08-12T00:20:34.629Z,101610.03
2022-08-12T00:23:20.857Z,101608.72
2022-08-12T00:26:21.298Z,101608.94
2022-08-12T00:29:11.493Z,101601.97
2022-08-12T00:32:00.401Z,101594.00
2022-08-12T00:34:49.289Z,101596.25
2022-08-12T00:37:37.457Z,101599.34
2022-08-12T00:40:30.105Z,101602.59
2022-08-12T00:42:59.824Z,101593.56
2022-08-12T00:45:47.446Z,101595.41
2022-08-12T00:48:15.391Z,101587.28
2022-08-12T00:50:43.270Z,101599.19
2022-08-12T00:53:10.896Z,101597.28
2022-08-12T00:55:46.445Z,101600.22
2022-08-12T00:58:18.585Z,101599.16
2022-08-12T01:00:45.758Z,101603.34
2022-08-12T01:03:19.287Z,101609.34
2022-08-12T01:06:07.713Z,101601.56
2022-08-12T01:08:53.201Z,101610.72
2022-08-12T01:11:29.530Z,101604.22
2022-08-12T01:13:59.957Z,101604.53
2022-08-12T01:16:27.635Z,101602.28
2022-08-12T01:18:57.314Z,101601.41
2022-08-12T01:21:49.699Z,101605.13
2022-08-12T01:24:57.341Z,101606.75
2022-08-12T01:27:27.286Z,101601.78
2022-08-12T01:29:57.122Z,101600.28
2022-08-12T01:32:27.522Z,101597.22
2022-08-12T01:35:03.265Z,101594.06
2022-08-12T01:37:32.999Z,101599.00
2022-08-12T01:40:36.918Z,101592.34
2022-08-12T01:42:51.242Z,101598.38
2022-08-12T01:45:24.848Z,101600.22
2022-08-12T01:48:29.557Z,101602.47
2022-08-12T01:52:16.005Z,101596.03
2022-08-12T01:54:10.903Z,101590.31
2022-08-12T01:56:58.278Z,101592.88
2022-08-12T01:59:59.747Z,101591.19
2022-08-12T02:02:53.704Z,101594.22
2022-08-12T02:06:22.286Z,101588.53
2022-08-12T02:09:19.058Z,101577.25
2022-08-12T02:11:59.876Z,101583.22
2022-08-12T02:15:13.024Z,101581.41
2022-08-12T02:17:57.094Z,101577.19
2022-08-12T02:20:51.466Z,101583.50
2022-08-12T02:23:26.527Z,101572.47
2022-08-12T02:25:59.647Z,101571.59
2022-08-12T02:28:27.230Z,101577.72
2022-08-12T02:30:55.828Z,101569.91
2022-08-12T02:33:23.195Z,101571.63
2022-08-12T02:35:51.594Z,101571.38
2022-08-12T02:38:21.688Z,101566.84
2022-08-12T02:40:54.939Z,101565.31
2022-08-12T02:43:37.918Z,101571.94
2022-08-12T02:46:14.565Z,101563.97
2022-08-12T02:48:51.215Z,101563.72
2022-08-12T02:51:30.597Z,101565.56
2022-08-12T02:54:04.292Z,101570.75
2022-08-12T02:56:40.624Z,101559.69
2022-08-12T02:59:17.852Z,101561.25
2022-08-12T03:01:54.993Z,101574.22
2022-08-12T03:04:43.112Z,101575.59
2022-08-12T03:07:16.915Z,101585.28
2022-08-12T03:12:49.853Z,101580.63
2022-08-12T03:15:22.994Z,101573.81
2022-08-12T03:18:26.360Z,101576.25
2022-08-12T03:20:58.186Z,101575.25
2022-08-12T03:23:29.888Z,101578.38
2022-08-12T03:26:00.693Z,101569.22
2022-08-12T03:28:49.612Z,101571.69
2022-08-12T03:31:24.293Z,101575.88
2022-08-12T03:34:01.402Z,101573.31
2022-08-12T03:36:35.721Z,101575.53
2022-08-12T03:39:36.084Z,101565.19
2022-08-12T03:42:42.188Z,101570.28
2022-08-12T03:46:00.596Z,101567.59
2022-08-12T03:48:46.148Z,101567.94
2022-08-12T03:51:31.439Z,101571.69
2022-08-12T03:54:17.014Z,101570.88
2022-08-12T03:57:02.458Z,101568.75
2022-08-12T03:59:47.934Z,101575.88
2022-08-12T04:02:16.976Z,101575.53
2022-08-12T04:04:49.304Z,101577.81
2022-08-12T04:07:21.119Z,101567.47
2022-08-12T04:09:48.228Z,101571.66
2022-08-12T04:12:34.150Z,101573.28
2022-08-12T04:15:02.125Z,101574.97
2022-08-12T04:17:30.547Z,101563.25
2022-08-12T04:19:59.151Z,101555.63
2022-08-12T04:22:29.815Z,101560.47
2022-08-12T04:25:01.308Z,101565.69
2022-08-12T04:27:31.132Z,101565.44
2022-08-12T04:30:30.290Z,101559.59
2022-08-12T04:32:48.811Z,101572.25
2022-08-12T04:35:17.102Z,101560.53
2022-08-12T04:37:59.746Z,101562.63
2022-08-12T04:40:33.942Z,101562.75
2022-08-12T04:43:01.480Z,101567.38
2022-08-12T04:45:30.624Z,101555.03
2022-08-12T04:47:57.969Z,101562.53
2022-08-12T04:50:34.135Z,101564.38
2022-08-12T04:53:08.712Z,101567.31
2022-08-12T04:55:38.515Z,101559.56
2022-08-12T04:58:07.172Z,101562.53
2022-08-12T05:00:35.435Z,101559.28
2022-08-12T05:03:02.610Z,101562.06
2022-08-12T05:05:35.250Z,101563.25
2022-08-12T05:08:04.055Z,101566.78
2022-08-12T05:10:33.593Z,101572.19
2022-08-12T05:13:08.226Z,101565.00
2022-08-12T05:16:04.802Z,101569.69
2022-08-12T05:18:25.994Z,101569.81
2022-08-12T05:20:58.782Z,101566.16
2022-08-12T05:23:26.016Z,101570.03
2022-08-12T05:25:57.476Z,101571.38
2022-08-12T05:28:27.037Z,101564.63
2022-08-12T05:30:56.179Z,101568.72
2022-08-12T05:33:26.665Z,101571.50
2022-08-12T05:35:53.788Z,101567.47
2022-08-12T05:38:39.076Z,101559.59
2022-08-12T05:41:19.194Z,101561.16
2022-08-12T05:43:59.475Z,101562.81
2022-08-12T05:46:29.019Z,101562.69
2022-08-12T05:48:56.638Z,101571.13
2022-08-12T05:51:39.931Z,101563.78
2022-08-12T05:54:09.172Z,101563.78
2022-08-12T05:56:36.735Z,101566.72
2022-08-12T05:59:09.300Z,101574.31
2022-08-12T06:02:09.011Z,101569.25
2022-08-12T06:04:24.071Z,101581.09
2022-08-12T06:06:53.589Z,101578.75
2022-08-12T06:09:22.599Z,101579.38
2022-08-12T06:12:04.084Z,101582.94
2022-08-12T06:14:36.937Z,101567.75
2022-08-12T06:17:05.782Z,101574.09
2022-08-12T06:20:27.658Z,101578.81
2022-08-12T06:22:20.027Z,101573.06
2022-08-12T06:24:49.767Z,101572.66
2022-08-12T06:27:18.942Z,101560.91
2022-08-12T06:30:07.998Z,101572.88
2022-08-12T06:32:35.438Z,101575.31
2022-08-12T06:35:23.205Z,101576.75
2022-08-12T06:37:56.777Z,101581.50
2022-08-12T06:40:43.734Z,101580.69
2022-08-12T06:43:10.761Z,101578.56
2022-08-12T06:45:45.951Z,101578.59
2022-08-12T06:48:14.012Z,101581.41
2022-08-12T06:50:42.354Z,101578.28
2022-08-12T06:53:11.288Z,101573.56
2022-08-12T06:55:56.677Z,101572.59
2022-08-12T06:58:26.402Z,101583.38
2022-08-12T07:00:54.639Z,101583.03
2022-08-12T07:03:25.688Z,101585.47
2022-08-12T07:05:53.759Z,101586.50
2022-08-12T07:08:21.082Z,101590.00
2022-08-12T07:10:58.990Z,101590.94
2022-08-12T07:13:35.900Z,101592.19
2022-08-12T07:16:22.790Z,101580.56
2022-08-12T07:18:53.743Z,101582.31
2022-08-12T07:21:20.755Z,101584.38
2022-08-12T07:23:47.766Z,101572.16
2022-08-12T07:26:21.374Z,101563.47
2022-08-12T07:28:52.463Z,101571.53
2022-08-12T07:31:19.620Z,101568.91
2022-08-12T07:33:46.595Z,101566.59
2022-08-12T07:36:14.621Z,101560.63
2022-08-12T07:38:48.313Z,101566.59
2022-08-12T07:41:24.051Z,101551.97
2022-08-12T07:44:02.511Z,101564.69
2022-08-12T07:46:39.190Z,101563.75
2022-08-12T07:49:14.088Z,101571.53
2022-08-12T07:51:42.739Z,101561.31
2022-08-12T07:54:11.648Z,101563.44
2022-08-12T07:56:43.105Z,101568.16
2022-08-12T07:59:10.411Z,101565.88
2022-08-12T08:01:38.494Z,101559.53
2022-08-12T08:04:25.231Z,101556.75
2022-08-12T08:06:53.786Z,101562.63
2022-08-12T08:09:24.116Z,101561.97
2022-08-12T08:12:19.101Z,101559.44
2022-08-12T08:14:48.383Z,101565.31
2022-08-12T08:17:17.784Z,101570.38
2022-08-12T08:20:03.057Z,101562.78
2022-08-12T08:22:46.178Z,101567.13
2022-08-12T08:25:34.774Z,101564.25
2022-08-12T08:28:04.555Z,101560.28
2022-08-12T08:30:37.567Z,101556.59
2022-08-12T08:33:23.011Z,101566.38
2022-08-12T08:35:54.559Z,101565.44
2022-08-12T08:38:32.177Z,101559.56
2022-08-12T08:42:17.156Z,101571.47
2022-08-12T08:44:12.110Z,101561.38
2022-08-12T08:46:44.673Z,101568.38
2022-08-12T08:49:13.342Z,101558.75
2022-08-12T08:51:40.475Z,101568.94
2022-08-12T08:54:08.698Z,101563.50
2022-08-12T08:56:50.070Z,101563.50
2022-08-12T08:59:19.459Z,101562.78
2022-08-12T09:01:49.097Z,101565.03
2022-08-12T09:05:08.524Z,101561.09
2022-08-12T09:10:02.014Z,101547.22
2022-08-12T09:12:55.168Z,101549.13
2022-08-12T09:15:35.480Z,101553.38
2022-08-12T09:18:08.784Z,101543.09
2022-08-12T09:20:38.736Z,101543.09
2022-08-12T09:23:58.736Z,101547.31
2022-08-12T09:26:04.473Z,101533.66
2022-08-12T09:28:37.317Z,101546.44
2022-08-12T09:32:03.916Z,101538.84
2022-08-12T09:34:29.290Z,101535.44
2022-08-12T09:36:57.678Z,101537.75
2022-08-12T09:40:08.125Z,101541.78
2022-08-12T09:42:43.611Z,101540.31
2022-08-12T09:45:23.047Z,101536.50
2022-08-12T09:47:59.422Z,101539.28
2022-08-12T09:50:27.824Z,101527.25
2022-08-12T09:53:29.300Z,101530.84
2022-08-12T09:56:58.683Z,101528.19
2022-08-12T09:59:00.083Z,101522.59
2022-08-12T10:01:35.507Z,101522.34
2022-08-12T10:04:19.684Z,101525.50
2022-08-12T10:06:55.046Z,101512.59
2022-08-12T10:09:28.939Z,101521.78
2022-08-12T10:12:33.380Z,101509.91
2022-08-12T10:15:02.369Z,101519.97
2022-08-12T10:17:29.793Z,101515.16
2022-08-12T10:19:59.945Z,101507.34
2022-08-12T10:22:36.486Z,101505.66
2022-08-12T10:26:33.754Z,101510.56
2022-08-12T10:28:38.327Z,101491.06
2022-08-12T10:31:06.696Z,101481.38
2022-08-12T10:34:04.903Z,101489.88
2022-08-12T10:36:42.955Z,101482.56
2022-08-12T10:40:00.355Z,101478.44
2022-08-12T10:42:32.633Z,101480.25
2022-08-12T10:45:06.721Z,101478.59
2022-08-12T10:48:16.010Z,101464.94
2022-08-12T10:50:33.883Z,101465.09
2022-08-12T10:53:15.658Z,101466.13
2022-08-12T10:55:48.963Z,101460.25
2022-08-12T10:58:28.138Z,101469.34
2022-08-12T11:01:50.374Z,101458.81
2022-08-12T11:04:25.444Z,101464.69
2022-08-12T11:07:08.650Z,101450.06
2022-08-12T11:09:55.740Z,101448.16
2022-08-12T11:12:54.933Z,101442.25
2022-08-12T11:14:59.278Z,101438.44
2022-08-12T11:17:34.140Z,101445.47
2022-08-12T11:20:15.088Z,101442.78
2022-08-12T11:22:42.555Z,101435.13
2022-08-12T11:25:25.151Z,101433.75
2022-08-12T11:28:13.704Z,101433.88
2022-08-12T11:30:41.541Z,101428.09
2022-08-12T11:33:12.366Z,101418.25
2022-08-12T11:35:54.036Z,101426.13
2022-08-12T11:38:24.590Z,101421.88
2022-08-12T11:40:51.873Z,101432.84
2022-08-12T11:43:20.446Z,101421.81
2022-08-12T11:45:53.321Z,101427.50
2022-08-12T11:48:26.685Z,101422.66
2022-08-12T11:50:54.903Z,101415.91
2022-08-12T11:53:58.781Z,101412.78
2022-08-12T11:56:11.515Z,101404.53
2022-08-12T12:00:31.852Z,101406.63
2022-08-12T12:02:02.998Z,101402.28
2022-08-12T12:04:17.047Z,101414.41
2022-08-12T12:06:56.759Z,101395.09
2022-08-12T12:09:51.856Z,101397.78
2022-08-12T12:12:20.082Z,101397.22
2022-08-12T12:14:55.058Z,101399.41
2022-08-12T12:17:25.125Z,101388.31
2022-08-12T12:19:53.756Z,101388.81
2022-08-12T12:22:23.489Z,101386.00
2022-08-12T12:24:59.001Z,101389.63
2022-08-12T12:28:05.079Z,101381.22
2022-08-12T12:30:38.589Z,101366.09
2022-08-12T12:33:06.930Z,101364.22
2022-08-12T12:36:18.977Z,101368.78
2022-08-12T12:38:25.048Z,101365.59
2022-08-12T12:40:52.708Z,101355.59
2022-08-12T12:43:37.182Z,101356.78
2022-08-12T12:46:07.360Z,101356.44
2022-08-12T12:48:35.925Z,101356.06
2022-08-12T12:51:48.400Z,101361.25
2022-08-12T12:54:08.432Z,101356.53
2022-08-12T12:56:42.876Z,101350.56
2022-08-12T12:59:55.256Z,101345.16
2022-08-12T13:02:07.664Z,101337.38
2022-08-12T13:04:37.207Z,101347.94
2022-08-12T13:07:05.773Z,101341.94
2022-08-12T13:09:36.302Z,101332.03
2022-08-12T13:12:09.021Z,101329.19
2022-08-12T13:14:40.087Z,101334.78
2022-08-12T13:17:11.353Z,101329.03
2022-08-12T13:19:43.369Z,101332.03
2022-08-12T13:22:19.584Z,101329.28
2022-08-12T13:24:56.357Z,101328.78
2022-08-12T13:27:34.898Z,101322.78
2022-08-12T13:30:11.493Z,101323.69
2022-08-12T13:32:57.357Z,101318.28
2022-08-12T13:35:33.258Z,101328.59
2022-08-12T13:38:13.505Z,101320.22
2022-08-12T13:40:46.259Z,101319.75
2022-08-12T13:43:41.534Z,101328.94
2022-08-12T13:46:06.440Z,101320.91
2022-08-12T13:48:33.339Z,101309.06
2022-08-12T13:51:00.573Z,101318.63
2022-08-12T13:53:40.263Z,101318.50
2022-08-12T13:56:18.391Z,101312.63
2022-08-12T13:58:52.635Z,101310.72
2022-08-12T14:01:21.992Z,101314.28
2022-08-12T14:03:50.984Z,101309.78
2022-08-12T14:06:19.800Z,101302.91
2022-08-12T14:08:49.790Z,101296.22
2022-08-12T14:11:19.097Z,101298.97
2022-08-12T14:14:05.472Z,101294.09
2022-08-12T14:16:46.691Z,101289.63
2022-08-12T14:19:24.250Z,101291.81
2022-08-12T14:21:59.201Z,101279.41
2022-08-12T14:24:34.817Z,101282.25
2022-08-12T14:27:02.720Z,101280.06
2022-08-12T14:29:38.252Z,101282.41
2022-08-12T14:32:18.083Z,101270.03
2022-08-12T14:34:49.085Z,101270.69
2022-08-12T14:37:55.432Z,101280.94
2022-08-12T14:40:05.196Z,101269.13
2022-08-12T14:42:32.264Z,101275.72
2022-08-12T14:45:01.852Z,101277.41
2022-08-12T14:47:35.316Z,101275.38
2022-08-12T14:50:37.328Z,101261.69
2022-08-12T14:58:31.957Z,101258.06
2022-08-12T15:01:19.746Z,101260.16
2022-08-12T15:03:56.769Z,101251.81
2022-08-12T15:06:39.031Z,101256.13
2022-08-12T15:09:13.541Z,101256.13
2022-08-12T15:11:54.321Z,101258.53
2022-08-12T15:14:22.268Z,101243.59
2022-08-12T15:16:49.960Z,101242.66
2022-08-12T15:20:11.933Z,101238.94
2022-08-12T15:22:37.685Z,101243.72
2022-08-12T15:24:52.220Z,101227.81
2022-08-12T15:27:22.151Z,101230.38
2022-08-12T15:29:52.398Z,101239.50
2022-08-12T15:32:20.315Z,101225.34
2022-08-12T15:35:03.063Z,101220.75
2022-08-12T15:38:09.369Z,101223.75
2022-08-12T15:40:30.128Z,101224.44
2022-08-12T15:43:03.842Z,101223.63
2022-08-12T15:45:33.538Z,101226.41
2022-08-12T15:48:16.199Z,101217.22
2022-08-12T15:50:53.020Z,101224.06
2022-08-12T15:53:53.232Z,101222.09
2022-08-12T15:56:29.140Z,101220.50
2022-08-12T15:59:00.543Z,101209.38
2022-08-12T16:01:35.042Z,101212.56
2022-08-12T16:04:05.326Z,101221.41
2022-08-12T16:09:55.901Z,101219.78
2022-08-12T16:12:12.312Z,101213.75
2022-08-12T16:14:41.789Z,101202.78
2022-08-12T16:17:15.611Z,101207.84
2022-08-12T16:20:03.921Z,101204.81
2022-08-12T16:22:29.901Z,101210.69
2022-08-12T16:24:57.131Z,101212.28
2022-08-12T16:27:25.578Z,101210.69
2022-08-12T16:29:57.418Z,101214.81
2022-08-12T16:32:31.836Z,101209.91
2022-08-12T16:35:01.437Z,101212.84
2022-08-12T16:37:32.590Z,101218.00
2022-08-12T16:40:18.881Z,101215.19
2022-08-12T16:42:54.106Z,101214.09
2022-08-12T16:45:32.334Z,101218.31
2022-08-12T16:48:35.482Z,101209.00
2022-08-12T16:51:09.422Z,101209.53
2022-08-12T16:53:43.905Z,101207.09
2022-08-12T16:56:16.787Z,101204.81
2022-08-12T16:58:44.558Z,101203.38
2022-08-12T17:01:15.600Z,101206.34
2022-08-12T17:03:52.016Z,101205.25
2022-08-12T17:06:27.784Z,101196.88
2022-08-12T17:09:02.973Z,101189.34
2022-08-12T17:11:31.258Z,101203.63
2022-08-12T17:13:59.483Z,101205.47
2022-08-12T17:16:29.929Z,101201.75
2022-08-12T17:19:03.075Z,101200.78
2022-08-12T17:21:41.130Z,101199.03
2022-08-12T17:24:22.414Z,101204.66
2022-08-12T17:26:54.040Z,101200.00
2022-08-12T17:29:31.978Z,101193.59
2022-08-12T17:32:11.069Z,101195.63
2022-08-12T17:34:57.019Z,101197.97
2022-08-12T17:37:24.104Z,101191.13
2022-08-12T17:40:14.900Z,101191.84
2022-08-12T17:42:38.548Z,101195.22
2022-08-12T17:45:17.484Z,101200.53
2022-08-12T17:48:04.599Z,101189.75
2022-08-12T17:50:35.934Z,101192.16
2022-08-12T17:53:04.604Z,101189.97
2022-08-12T17:55:43.690Z,101196.81
2022-08-12T17:58:37.453Z,101193.22
2022-08-12T18:01:10.984Z,101200.25
2022-08-12T18:03:58.072Z,101191.41
2022-08-12T18:06:28.127Z,101192.84
2022-08-12T18:08:56.922Z,101192.25
2022-08-12T18:12:04.306Z,101203.94
2022-08-12T18:14:37.063Z,101205.66
2022-08-12T18:17:08.876Z,101215.16
2022-08-12T18:20:04.974Z,101210.41
2022-08-12T18:22:39.417Z,101213.53
2022-08-12T18:26:12.715Z,101209.41
2022-08-12T18:28:15.145Z,101211.91
2022-08-12T18:30:52.265Z,101214.00
2022-08-12T18:33:25.152Z,101225.97
2022-08-12T18:35:55.753Z,101221.56
2022-08-12T18:38:27.917Z,101214.91
2022-08-12T18:41:21.697Z,101209.78
2022-08-12T18:44:02.472Z,101223.66
2022-08-12T18:46:55.821Z,101212.53
2022-08-12T18:49:39.407Z,101223.38
2022-08-12T18:52:11.706Z,101220.56
2022-08-12T18:54:53.956Z,101228.59
2022-08-12T18:58:06.468Z,101220.88
2022-08-12T19:00:18.813Z,101226.00
2022-08-12T19:02:55.763Z,101219.88
2022-08-12T19:05:54.148Z,101229.19
2022-08-12T19:08:12.719Z,101232.41
2022-08-12T19:10:50.423Z,101234.00
2022-08-12T19:13:42.945Z,101234.16
2022-08-12T19:16:11.161Z,101220.38
2022-08-12T19:18:44.765Z,101231.25
2022-08-12T19:21:16.253Z,101224.44
2022-08-12T19:24:04.660Z,101226.16
2022-08-12T19:26:34.472Z,101218.41
2022-08-12T19:29:04.982Z,101225.94
2022-08-12T19:31:56.890Z,101230.56
2022-08-12T19:37:38.553Z,101238.06
2022-08-12T19:40:33.153Z,101237.06
2022-08-12T19:43:17.856Z,101235.66
2022-08-12T19:45:56.775Z,101242.41
2022-08-12T19:48:30.457Z,101252.19
2022-08-12T19:51:08.664Z,101246.25
2022-08-12T19:53:56.819Z,101250.56
2022-08-12T19:56:25.150Z,101247.31
2022-08-12T19:58:52.599Z,101250.00
2022-08-12T20:06:06.055Z,101253.94
2022-08-12T20:08:36.517Z,101260.13
2022-08-12T20:12:09.194Z,101252.13
2022-08-12T20:14:00.599Z,101251.06
2022-08-12T20:16:51.088Z,101252.25
2022-08-12T20:19:17.688Z,101260.47
2022-08-12T20:21:45.050Z,101262.81
2022-08-12T20:24:14.082Z,101258.03
2022-08-12T20:26:42.502Z,101263.81
2022-08-12T20:29:13.542Z,101265.19
2022-08-12T20:31:41.433Z,101263.94
2022-08-12T20:34:12.487Z,101263.94
2022-08-12T20:36:44.818Z,101264.38
2022-08-12T20:39:33.775Z,101259.06
2022-08-12T20:42:07.586Z,101268.94
2022-08-12T20:44:40.185Z,101259.13
2022-08-12T20:47:18.110Z,101264.66
2022-08-12T20:49:54.837Z,101260.91
2022-08-12T20:52:25.494Z,101268.72
2022-08-12T20:54:57.988Z,101262.06
2022-08-12T20:57:25.945Z,101257.53
2022-08-12T21:00:15.382Z,101260.75
2022-08-12T21:02:47.133Z,101260.22
2022-08-12T21:06:09.902Z,101259.97
2022-08-12T21:08:26.401Z,101264.84
2022-08-12T21:10:55.418Z,101272.84
2022-08-12T21:13:27.078Z,101266.22
2022-08-12T21:15:59.723Z,101269.25
2022-08-12T21:18:29.080Z,101264.50
2022-08-12T21:20:58.882Z,101272.84
2022-08-12T21:23:30.816Z,101272.69
2022-08-12T21:26:06.088Z,101269.78
2022-08-12T21:28:38.661Z,101274.81
2022-08-12T21:32:38.077Z,101266.59
2022-08-12T21:34:07.620Z,101268.94
2022-08-12T21:36:39.870Z,101277.03
2022-08-12T21:39:30.521Z,101273.69
2022-08-12T21:42:08.588Z,101267.38
2022-08-12T21:45:46.020Z,101275.31
2022-08-12T21:47:25.927Z,101271.16
2022-08-12T21:50:04.018Z,101270.41
2022-08-12T21:52:36.822Z,101272.53
2022-08-12T21:55:18.682Z,101279.56
2022-08-12T21:57:53.179Z,101276.69
2022-08-12T22:00:32.086Z,101272.47
2022-08-12T22:04:04.447Z,101274.75
2022-08-12T22:06:30.985Z,101288.41
2022-08-12T22:09:16.621Z,101284.50
2022-08-12T22:11:56.810Z,101285.09
2022-08-12T22:14:29.649Z,101288.38
2022-08-12T22:16:58.688Z,101288.03
2022-08-12T22:19:27.748Z,101291.75
2022-08-12T22:21:58.408Z,101284.34
2022-08-12T22:24:30.560Z,101275.72
2022-08-12T22:27:22.873Z,101283.59
2022-08-12T22:30:16.954Z,101282.78
2022-08-12T22:32:51.291Z,101282.94
2022-08-12T22:35:56.575Z,101295.22
2022-08-12T22:38:26.485Z,101293.63
2022-08-12T22:41:06.400Z,101282.22
2022-08-12T22:44:01.182Z,101285.59
2022-08-12T22:46:37.233Z,101285.00
2022-08-12T22:49:06.534Z,101289.50
2022-08-12T22:51:42.894Z,101282.63
2022-08-12T22:54:35.252Z,101286.41
2022-08-12T22:57:05.628Z,101287.09
2022-08-12T22:59:55.866Z,101283.31
2022-08-12T23:02:30.119Z,101286.75
2022-08-12T23:04:58.539Z,101279.22
2022-08-12T23:07:25.851Z,101282.63
2022-08-12T23:09:54.713Z,101272.63
2022-08-12T23:12:46.463Z,101277.75
2022-08-12T23:15:14.493Z,101280.38
2022-08-12T23:17:41.993Z,101262.13
2022-08-12T23:20:11.454Z,101265.38
2022-08-12T23:23:08.744Z,101277.28
2022-08-12T23:25:32.690Z,101277.22
2022-08-12T23:28:31.787Z,101269.13
2022-08-12T23:31:04.574Z,101267.97
2022-08-12T23:34:01.349Z,101268.59
2022-08-12T23:36:31.647Z,101265.28
2022-08-12T23:40:14.951Z,101270.00
2022-08-12T23:42:17.989Z,101267.16
2022-08-12T23:44:43.902Z,101271.72
2022-08-12T23:47:11.270Z,101271.97
2022-08-12T23:49:58.313Z,101262.81
2022-08-12T23:52:34.166Z,101275.94
2022-08-12T23:55:24.759Z,101268.94
2022-08-12T23:58:22.582Z,101269.78
